createdAt,value
2018-05-19T00:00:58.972Z,0.00
2018-05-19T00:01:58.963Z,0.00
2018-05-19T00:02:58.952Z,0.00
2018-05-19T00:03:58.951Z,0.00
2018-05-19T00:04:58.942Z,0.00
2018-05-19T00:05:58.936Z,0.00
2018-05-19T00:06:58.935Z,0.00
2018-05-19T00:07:58.931Z,0.00
2018-05-19T00:08:58.926Z,0.00
2018-05-19T00:09:58.921Z,0.00
2018-05-19T00:10:58.911Z,0.00
2018-05-19T00:11:58.905Z,0.00
2018-05-19T00:12:58.900Z,0.00
2018-05-19T00:13:58.896Z,0.00
2018-05-19T00:14:58.896Z,0.00
2018-05-19T00:15:58.891Z,0.00
2018-05-19T00:16:58.880Z,0.00
2018-05-19T00:17:58.875Z,0.00
2018-05-19T00:18:58.874Z,0.00
2018-05-19T00:19:58.870Z,0.00
2018-05-19T00:20:58.865Z,0.00
2018-05-19T00:21:58.859Z,0.00
2018-05-19T00:22:58.848Z,0.00
2018-05-19T00:23:58.843Z,0.00
2018-05-19T00:24:58.837Z,0.00
2018-05-19T00:25:58.834Z,0.00
2018-05-19T00:26:58.830Z,0.00
2018-05-19T00:27:58.826Z,0.00
2018-05-19T00:28:58.822Z,0.00
2018-05-19T00:29:58.816Z,0.00
2018-05-19T00:30:58.804Z,0.00
2018-05-19T00:31:58.800Z,0.00
2018-05-19T00:32:58.802Z,0.00
2018-05-19T00:33:58.795Z,0.00
2018-05-19T00:34:58.783Z,0.00
2018-05-19T00:35:58.783Z,0.00
2018-05-19T00:36:58.773Z,0.00
2018-05-19T00:37:58.767Z,0.00
2018-05-19T00:38:58.767Z,0.00
2018-05-19T00:39:58.761Z,0.00
2018-05-19T00:40:58.754Z,0.00
2018-05-19T00:41:58.751Z,0.00
2018-05-19T00:42:58.739Z,0.00
2018-05-19T00:43:58.734Z,0.00
2018-05-19T00:44:58.728Z,0.00
2018-05-19T00:45:58.723Z,0.00
2018-05-19T00:46:58.721Z,0.00
2018-05-19T00:47:58.717Z,0.00
2018-05-19T00:48:58.706Z,0.00
2018-05-19T00:49:58.706Z,0.00
2018-05-19T00:50:58.700Z,0.00
2018-05-19T00:51:58.693Z,0.00
2018-05-19T00:52:58.716Z,0.00
2018-05-19T00:53:58.682Z,0.00
2018-05-19T00:54:58.673Z,0.00
2018-05-19T00:55:58.666Z,0.00
2018-05-19T00:56:58.661Z,0.00
2018-05-19T00:57:58.657Z,0.00
2018-05-19T00:58:58.654Z,0.00
2018-05-19T00:59:58.652Z,0.00
2018-05-19T01:00:58.641Z,0.00
2018-05-19T01:01:58.637Z,0.00
2018-05-19T01:02:58.627Z,0.00
2018-05-19T01:03:58.619Z,0.00
2018-05-19T01:04:58.618Z,0.00
2018-05-19T01:05:58.613Z,0.00
2018-05-19T01:06:58.602Z,0.00
2018-05-19T01:07:58.595Z,0.00
2018-05-19T01:08:58.591Z,0.00
2018-05-19T01:09:58.585Z,0.00
2018-05-19T01:10:58.583Z,0.00
2018-05-19T01:11:58.577Z,0.00
2018-05-19T01:12:58.572Z,0.00
2018-05-19T01:13:58.566Z,0.00
2018-05-19T01:14:58.562Z,0.00
2018-05-19T01:15:58.549Z,0.00
2018-05-19T01:16:58.551Z,0.00
2018-05-19T01:17:58.538Z,0.00
2018-05-19T01:18:58.538Z,0.00
2018-05-19T01:19:58.530Z,0.00
2018-05-19T01:20:58.519Z,0.00
2018-05-19T01:21:58.518Z,0.00
2018-05-19T01:22:58.512Z,0.00
2018-05-19T01:23:58.532Z,0.00
2018-05-19T01:24:58.501Z,0.00
2018-05-19T01:25:58.496Z,0.00
2018-05-19T01:26:58.483Z,0.00
2018-05-19T01:27:58.477Z,0.00
2018-05-19T01:28:58.475Z,0.00
2018-05-19T01:29:58.466Z,0.00
2018-05-19T01:30:58.464Z,0.00
2018-05-19T01:31:58.458Z,0.00
2018-05-19T01:32:58.451Z,0.00
2018-05-19T01:33:58.445Z,0.00
2018-05-19T01:34:58.434Z,0.00
2018-05-19T01:35:58.433Z,0.00
2018-05-19T01:36:58.427Z,0.00
2018-05-19T01:37:58.425Z,0.00
2018-05-19T01:38:58.409Z,0.00
2018-05-19T01:39:58.404Z,0.00
2018-05-19T01:40:58.398Z,0.00
2018-05-19T01:41:58.392Z,0.00
2018-05-19T01:42:58.391Z,0.00
2018-05-19T01:43:58.384Z,0.00
2018-05-19T01:44:58.378Z,0.00
2018-05-19T01:45:58.372Z,0.00
2018-05-19T01:46:58.360Z,0.00
2018-05-19T01:47:58.357Z,0.00
2018-05-19T01:48:58.349Z,0.00
2018-05-19T01:49:58.341Z,0.00
2018-05-19T01:50:58.339Z,0.00
2018-05-19T01:51:58.332Z,0.00
2018-05-19T01:52:58.323Z,0.00
2018-05-19T01:53:58.317Z,0.00
2018-05-19T01:54:58.314Z,0.00
2018-05-19T01:55:58.308Z,0.00
2018-05-19T01:56:58.302Z,0.00
2018-05-19T01:57:58.295Z,0.00
2018-05-19T01:58:58.284Z,0.00
2018-05-19T01:59:58.281Z,0.00
2018-05-19T02:00:58.272Z,0.00
2018-05-19T02:01:58.265Z,0.00
2018-05-19T02:02:58.275Z,0.00
2018-05-19T02:03:58.257Z,0.00
2018-05-19T02:04:58.251Z,0.00
2018-05-19T02:05:58.246Z,0.00
2018-05-19T02:06:58.242Z,0.00
2018-05-19T02:07:58.227Z,0.00
2018-05-19T02:08:58.226Z,0.00
2018-05-19T02:09:58.220Z,0.00
2018-05-19T02:10:58.208Z,0.00
2018-05-19T02:11:58.201Z,0.00
2018-05-19T02:12:58.194Z,0.00
2018-05-19T02:13:58.187Z,0.00
2018-05-19T02:14:58.185Z,0.00
2018-05-19T02:15:58.186Z,0.00
2018-05-19T02:16:58.172Z,0.00
2018-05-19T02:17:58.169Z,0.00
2018-05-19T02:18:58.154Z,0.00
2018-05-19T02:19:58.148Z,0.00
2018-05-19T02:20:58.142Z,0.00
2018-05-19T02:21:58.135Z,0.00
2018-05-19T02:22:58.134Z,0.00
2018-05-19T02:23:58.126Z,0.00
2018-05-19T02:24:58.115Z,0.00
2018-05-19T02:25:58.108Z,0.00
2018-05-19T02:26:58.107Z,0.00
2018-05-19T02:27:58.099Z,0.00
2018-05-19T02:28:58.092Z,0.00
2018-05-19T02:29:58.087Z,0.00
2018-05-19T02:30:58.075Z,0.00
2018-05-19T02:31:58.069Z,0.00
2018-05-19T02:32:58.066Z,0.00
2018-05-19T02:33:58.057Z,0.00
2018-05-19T02:34:58.052Z,0.00
2018-05-19T02:35:58.053Z,0.00
2018-05-19T02:36:58.046Z,0.00
2018-05-19T02:37:58.034Z,0.00
2018-05-19T02:38:58.021Z,0.00
2018-05-19T02:39:58.014Z,0.00
2018-05-19T02:40:58.014Z,0.00
2018-05-19T02:41:58.007Z,0.00
2018-05-19T02:42:57.993Z,0.00
2018-05-19T02:43:57.993Z,0.00
2018-05-19T02:44:57.981Z,0.00
2018-05-19T02:45:57.975Z,0.00
2018-05-19T02:46:57.971Z,0.00
2018-05-19T02:47:57.964Z,0.00
2018-05-19T02:48:57.958Z,0.00
2018-05-19T02:49:57.951Z,0.00
2018-05-19T02:50:57.940Z,0.00
2018-05-19T02:51:57.933Z,0.00
2018-05-19T02:52:57.927Z,0.00
2018-05-19T02:53:57.921Z,0.00
2018-05-19T02:54:57.919Z,0.00
2018-05-19T02:55:57.912Z,0.00
2018-05-19T02:56:57.903Z,0.00
2018-05-19T02:57:57.893Z,0.00
2018-05-19T02:58:57.892Z,0.00
2018-05-19T02:59:57.909Z,4.00
2018-05-19T03:00:57.877Z,4.00
2018-05-19T03:01:57.878Z,0.00
2018-05-19T03:02:57.859Z,0.00
2018-05-19T03:03:57.852Z,4.00
2018-05-19T03:04:57.845Z,4.00
2018-05-19T03:05:57.838Z,4.00
2018-05-19T03:06:57.836Z,4.00
2018-05-19T03:07:57.830Z,8.00
2018-05-19T03:08:57.822Z,8.00
2018-05-19T03:09:57.817Z,4.00
2018-05-19T03:10:57.803Z,8.00
2018-05-19T03:11:57.796Z,8.00
2018-05-19T03:12:57.795Z,12.00
2018-05-19T03:13:57.787Z,12.00
2018-05-19T03:14:57.775Z,16.00
2018-05-19T03:15:57.773Z,16.00
2018-05-19T03:16:57.762Z,16.00
2018-05-19T03:17:57.759Z,24.00
2018-05-19T03:18:57.753Z,24.00
2018-05-19T03:19:57.745Z,28.00
2018-05-19T03:20:57.742Z,28.00
2018-05-19T03:21:57.733Z,32.00
2018-05-19T03:22:57.719Z,36.00
2018-05-19T03:23:57.713Z,44.00
2018-05-19T03:24:57.706Z,44.00
2018-05-19T03:25:57.700Z,52.00
2018-05-19T03:26:57.695Z,52.00
2018-05-19T03:27:57.689Z,64.00
2018-05-19T03:28:57.680Z,68.00
2018-05-19T03:29:57.671Z,76.00
2018-05-19T03:30:57.668Z,80.00
2018-05-19T03:31:57.666Z,92.00
2018-05-19T03:32:57.704Z,100.00
2018-05-19T03:33:57.648Z,112.00
2018-05-19T03:34:57.638Z,116.00
2018-05-19T03:35:57.674Z,124.00
2018-05-19T03:36:57.622Z,128.00
2018-05-19T03:37:57.617Z,132.00
2018-05-19T03:38:57.614Z,132.00
2018-05-19T03:39:57.607Z,136.00
2018-05-19T03:40:57.600Z,140.00
2018-05-19T03:41:57.593Z,148.00
2018-05-19T03:42:57.581Z,148.00
2018-05-19T03:43:57.574Z,160.00
2018-05-19T03:44:57.572Z,168.00
2018-05-19T03:45:57.565Z,176.00
2018-05-19T03:46:57.553Z,188.00
2018-05-19T03:47:57.546Z,200.00
2018-05-19T03:48:57.540Z,216.00
2018-05-19T03:49:57.534Z,228.00
2018-05-19T03:50:57.531Z,244.00
2018-05-19T03:51:57.525Z,256.00
2018-05-19T03:52:57.522Z,260.00
2018-05-19T03:53:57.588Z,264.00
2018-05-19T03:54:57.500Z,268.00
2018-05-19T03:55:57.495Z,272.00
2018-05-19T03:56:57.487Z,292.00
2018-05-19T03:57:57.480Z,316.00
2018-05-19T03:58:57.477Z,340.00
2018-05-19T03:59:57.470Z,352.00
2018-05-19T04:00:57.460Z,368.00
2018-05-19T04:01:57.454Z,396.00
2018-05-19T04:02:57.452Z,412.00
2018-05-19T04:03:57.444Z,448.00
2018-05-19T04:04:57.439Z,456.00
2018-05-19T04:05:57.432Z,464.00
2018-05-19T04:06:57.421Z,476.00
2018-05-19T04:07:57.414Z,508.00
2018-05-19T04:08:57.412Z,552.00
2018-05-19T04:09:57.465Z,576.00
2018-05-19T04:10:57.396Z,596.00
2018-05-19T04:11:57.390Z,632.00
2018-05-19T04:12:57.383Z,664.00
2018-05-19T04:13:57.379Z,700.00
2018-05-19T04:14:57.375Z,752.00
2018-05-19T04:15:57.370Z,764.00
2018-05-19T04:16:57.359Z,788.00
2018-05-19T04:17:57.354Z,860.00
2018-05-19T04:18:57.351Z,916.00
2018-05-19T04:19:57.345Z,940.00
2018-05-19T04:20:57.344Z,992.00
2018-05-19T04:21:57.333Z,1096.00
2018-05-19T04:22:57.321Z,1148.00
2018-05-19T04:23:57.315Z,1192.00
2018-05-19T04:24:57.313Z,1236.00
2018-05-19T04:25:57.304Z,1212.00
2018-05-19T04:26:57.301Z,1208.00
2018-05-19T04:27:57.297Z,1268.00
2018-05-19T04:28:57.291Z,1308.00
2018-05-19T04:29:57.287Z,1352.00
2018-05-19T04:30:57.274Z,1396.00
2018-05-19T04:31:57.269Z,1436.00
2018-05-19T04:32:57.267Z,1472.00
2018-05-19T04:33:57.263Z,1504.00
2018-05-19T04:34:57.250Z,1584.00
2018-05-19T04:35:57.246Z,1636.00
2018-05-19T04:36:57.239Z,1720.00
2018-05-19T04:37:57.236Z,1784.00
2018-05-19T04:38:57.232Z,1808.00
2018-05-19T04:39:57.226Z,1852.00
2018-05-19T04:40:57.221Z,1884.00
2018-05-19T04:41:57.216Z,1884.00
2018-05-19T04:42:57.205Z,1896.00
2018-05-19T04:43:57.199Z,1936.00
2018-05-19T04:44:57.195Z,2028.00
2018-05-19T04:45:57.188Z,2152.00
2018-05-19T04:46:57.188Z,2220.00
2018-05-19T04:47:57.182Z,2272.00
2018-05-19T04:48:57.175Z,2352.00
2018-05-19T04:49:57.166Z,2416.00
2018-05-19T04:50:57.165Z,2448.00
2018-05-19T04:51:57.159Z,2412.00
2018-05-19T04:52:57.154Z,2404.00
2018-05-19T04:53:57.148Z,2480.00
2018-05-19T04:54:57.142Z,2636.00
2018-05-19T04:55:57.133Z,2800.00
2018-05-19T04:56:57.203Z,2868.00
2018-05-19T04:57:57.127Z,2852.00
2018-05-19T04:58:57.121Z,2820.00
2018-05-19T04:59:57.115Z,2856.00
2018-05-19T05:00:57.113Z,2892.00
2018-05-19T05:01:57.108Z,2988.00
2018-05-19T05:02:57.096Z,3084.00
2018-05-19T05:03:57.101Z,3196.00
2018-05-19T05:04:57.093Z,3252.00
2018-05-19T05:05:57.086Z,3348.00
2018-05-19T05:06:57.076Z,3528.00
2018-05-19T05:07:57.070Z,3628.00
2018-05-19T05:08:57.066Z,3612.00
2018-05-19T05:09:57.061Z,3596.00
2018-05-19T05:10:57.060Z,3752.00
2018-05-19T05:11:57.055Z,3924.00
2018-05-19T05:12:57.052Z,4068.00
2018-05-19T05:13:57.067Z,4152.00
2018-05-19T05:14:57.036Z,4160.00
2018-05-19T05:15:57.031Z,4260.00
2018-05-19T05:16:57.026Z,4320.00
2018-05-19T05:17:57.021Z,4324.00
2018-05-19T05:18:57.021Z,4320.00
2018-05-19T05:19:57.018Z,4192.00
2018-05-19T05:20:57.007Z,4380.00
2018-05-19T05:21:57.003Z,4620.00
2018-05-19T05:22:57.002Z,4668.00
2018-05-19T05:23:56.997Z,4776.00
2018-05-19T05:24:56.993Z,4968.00
2018-05-19T05:25:56.990Z,5116.00
2018-05-19T05:26:57.014Z,5132.00
2018-05-19T05:27:57.057Z,5140.00
2018-05-19T05:28:56.970Z,5196.00
2018-05-19T05:29:56.966Z,5360.00
2018-05-19T05:30:56.966Z,5752.00
2018-05-19T05:31:56.966Z,6232.00
2018-05-19T05:32:56.957Z,6616.00
2018-05-19T05:33:56.952Z,6896.00
2018-05-19T05:34:56.943Z,7116.00
2018-05-19T05:35:56.979Z,7284.00
2018-05-19T05:36:56.943Z,8996.00
2018-05-19T05:37:56.936Z,7616.00
2018-05-19T05:38:56.928Z,7764.00
2018-05-19T05:39:56.922Z,7628.00
2018-05-19T05:40:56.923Z,7964.00
2018-05-19T05:41:56.915Z,8084.00
2018-05-19T05:42:56.916Z,8144.00
2018-05-19T05:43:56.914Z,8136.00
2018-05-19T05:44:56.910Z,8192.00
2018-05-19T05:45:56.905Z,8300.00
2018-05-19T05:46:56.896Z,8332.00
2018-05-19T05:47:56.896Z,8208.00
2018-05-19T05:48:56.890Z,8384.00
2018-05-19T05:49:56.887Z,8536.00
2018-05-19T05:50:56.887Z,8904.00
2018-05-19T05:51:56.884Z,8868.00
2018-05-19T05:52:56.877Z,8780.00
2018-05-19T05:53:56.873Z,8428.00
2018-05-19T05:54:56.874Z,8240.00
2018-05-19T05:55:56.871Z,8236.00
2018-05-19T05:56:56.873Z,8232.00
2018-05-19T05:57:56.868Z,8440.00
2018-05-19T05:58:56.860Z,9368.00
2018-05-19T05:59:56.896Z,8624.00
2018-05-19T06:00:56.854Z,8496.00
2018-05-19T06:01:56.851Z,8616.00
2018-05-19T06:02:56.854Z,8680.00
2018-05-19T06:03:56.850Z,8736.00
2018-05-19T06:04:56.847Z,8964.00
2018-05-19T06:05:56.858Z,9208.00
2018-05-19T06:06:56.838Z,9680.00
2018-05-19T06:07:56.835Z,9804.00
2018-05-19T06:08:56.837Z,9988.00
2018-05-19T06:09:56.835Z,10336.00
2018-05-19T06:10:56.828Z,11132.00
2018-05-19T06:11:56.830Z,11392.00
2018-05-19T06:12:56.824Z,18336.00
2018-05-19T06:13:56.823Z,16544.00
2018-05-19T06:14:56.823Z,13600.00
2018-05-19T06:15:56.822Z,13692.00
2018-05-19T06:16:56.819Z,13548.00
2018-05-19T06:17:56.818Z,13780.00
2018-05-19T06:18:56.839Z,14988.00
2018-05-19T06:19:56.811Z,13932.00
2018-05-19T06:20:56.807Z,12668.00
2018-05-19T06:21:56.808Z,11940.00
2018-05-19T06:22:56.808Z,11692.00
2018-05-19T06:23:56.812Z,11924.00
2018-05-19T06:24:56.877Z,12232.00
2018-05-19T06:25:56.802Z,12604.00
2018-05-19T06:26:56.805Z,12268.00
2018-05-19T06:27:56.803Z,12008.00
2018-05-19T06:28:56.801Z,11948.00
2018-05-19T06:29:56.800Z,12024.00
2018-05-19T06:30:56.794Z,12228.00
2018-05-19T06:31:56.793Z,12820.00
2018-05-19T06:32:56.792Z,15712.00
2018-05-19T06:33:56.792Z,13396.00
2018-05-19T06:34:56.795Z,13280.00
2018-05-19T06:35:56.799Z,13532.00
2018-05-19T06:36:56.795Z,14164.00
2018-05-19T06:37:56.794Z,15036.00
2018-05-19T06:38:56.787Z,16192.00
2018-05-19T06:39:56.789Z,13592.00
2018-05-19T06:40:56.792Z,14620.00
2018-05-19T06:41:56.798Z,20128.00
2018-05-19T06:42:56.789Z,16224.00
2018-05-19T06:43:56.784Z,15168.00
2018-05-19T06:44:56.786Z,21376.00
2018-05-19T06:45:56.784Z,20960.00
2018-05-19T06:46:56.787Z,15968.00
2018-05-19T06:47:56.876Z,21632.00
2018-05-19T06:48:56.789Z,23104.00
2018-05-19T06:49:56.790Z,22112.00
2018-05-19T06:50:56.786Z,22560.00
2018-05-19T06:51:56.786Z,19360.00
2018-05-19T06:52:56.787Z,18560.00
2018-05-19T06:53:56.790Z,27168.00
2018-05-19T06:54:56.798Z,20480.00
2018-05-19T06:55:56.797Z,27040.00
2018-05-19T06:56:56.795Z,26720.00
2018-05-19T06:57:56.797Z,28640.00
2018-05-19T06:58:56.803Z,29632.00
2018-05-19T06:59:56.805Z,29536.00
2018-05-19T07:00:56.808Z,28864.00
2018-05-19T07:01:56.811Z,26368.00
2018-05-19T07:02:56.812Z,23040.00
2018-05-19T07:03:56.819Z,25344.00
2018-05-19T07:04:56.818Z,26432.00
2018-05-19T07:05:56.821Z,23808.00
2018-05-19T07:06:56.830Z,24544.00
2018-05-19T07:07:56.834Z,32768.00
2018-05-19T07:08:56.840Z,44832.00
2018-05-19T07:09:56.844Z,48736.00
2018-05-19T07:10:56.844Z,32192.00
2018-05-19T07:11:56.849Z,42592.00
2018-05-19T07:12:56.857Z,40320.00
2018-05-19T07:13:56.864Z,29760.00
2018-05-19T07:14:56.922Z,32416.00
2018-05-19T07:15:56.869Z,24192.00
2018-05-19T07:16:56.875Z,21344.00
2018-05-19T07:17:56.881Z,20224.00
2018-05-19T07:18:56.890Z,20736.00
2018-05-19T07:19:56.898Z,23680.00
2018-05-19T07:20:56.909Z,41024.00
2018-05-19T07:21:56.910Z,30048.00
2018-05-19T07:22:56.911Z,16800.00
2018-05-19T07:23:56.916Z,15272.00
2018-05-19T07:24:56.923Z,15152.00
2018-05-19T07:25:56.930Z,15528.00
2018-05-19T07:26:56.939Z,16608.00
2018-05-19T07:27:56.944Z,17792.00
2018-05-19T07:28:56.945Z,19872.00
2018-05-19T07:29:56.952Z,20032.00
2018-05-19T07:30:56.960Z,34528.00
2018-05-19T07:31:56.965Z,28256.00
2018-05-19T07:32:56.971Z,32960.00
2018-05-19T07:33:56.976Z,36064.00
2018-05-19T07:34:56.975Z,47648.00
2018-05-19T07:35:56.980Z,47104.00
2018-05-19T07:36:56.987Z,41696.00
2018-05-19T07:37:56.991Z,64640.00
2018-05-19T07:38:57.001Z,33088.00
2018-05-19T07:39:57.005Z,34048.00
2018-05-19T07:40:57.011Z,37504.00
2018-05-19T07:41:57.017Z,32352.00
2018-05-19T07:42:57.018Z,28864.00
2018-05-19T07:43:57.023Z,48896.00
2018-05-19T07:44:57.034Z,31840.00
2018-05-19T07:45:57.041Z,27072.00
2018-05-19T07:46:57.042Z,26240.00
2018-05-19T07:47:57.048Z,25248.00
2018-05-19T07:48:57.056Z,25504.00
2018-05-19T07:49:57.063Z,26528.00
2018-05-19T07:50:57.085Z,31680.00
2018-05-19T07:51:57.079Z,24096.00
2018-05-19T07:52:57.089Z,22016.00
2018-05-19T07:53:57.093Z,22176.00
2018-05-19T07:54:57.097Z,21504.00
2018-05-19T07:55:57.100Z,24128.00
2018-05-19T07:56:57.107Z,23072.00
2018-05-19T07:57:57.113Z,23520.00
2018-05-19T07:58:57.126Z,27648.00
2018-05-19T07:59:57.130Z,32064.00
2018-05-19T08:00:57.135Z,32928.00
2018-05-19T08:01:57.139Z,31616.00
2018-05-19T08:02:57.149Z,50464.00
2018-05-19T08:03:57.155Z,51040.00
2018-05-19T08:04:57.167Z,47936.00
2018-05-19T08:05:57.169Z,55584.00
2018-05-19T08:06:57.172Z,39200.00
2018-05-19T08:07:57.181Z,31584.00
2018-05-19T08:08:57.184Z,32992.00
2018-05-19T08:09:57.193Z,34176.00
2018-05-19T08:10:57.205Z,42272.00
2018-05-19T08:11:57.213Z,42368.00
2018-05-19T08:12:57.224Z,39264.00
2018-05-19T08:13:57.234Z,35904.00
2018-05-19T08:14:57.233Z,30912.00
2018-05-19T08:15:57.242Z,32256.00
2018-05-19T08:16:57.256Z,31392.00
2018-05-19T08:17:57.264Z,39776.00
2018-05-19T08:18:57.274Z,33216.00
2018-05-19T08:19:57.278Z,30304.00
2018-05-19T08:20:57.287Z,28192.00
2018-05-19T08:21:57.296Z,25088.00
2018-05-19T08:22:57.309Z,20544.00
2018-05-19T08:23:57.319Z,18624.00
2018-05-19T08:24:57.326Z,17632.00
2018-05-19T08:25:57.336Z,16832.00
2018-05-19T08:26:57.337Z,16000.00
2018-05-19T08:27:57.345Z,15108.00
2018-05-19T08:28:57.353Z,14520.00
2018-05-19T08:29:57.361Z,13936.00
2018-05-19T08:30:57.374Z,13392.00
2018-05-19T08:31:57.381Z,13020.00
2018-05-19T08:32:57.385Z,12728.00
2018-05-19T08:33:57.391Z,12524.00
2018-05-19T08:34:57.402Z,12224.00
2018-05-19T08:35:57.408Z,11940.00
2018-05-19T08:36:57.417Z,11660.00
2018-05-19T08:37:57.423Z,11568.00
2018-05-19T08:38:57.423Z,11540.00
2018-05-19T08:39:57.430Z,11472.00
2018-05-19T08:40:57.436Z,11252.00
2018-05-19T08:41:57.443Z,10568.00
2018-05-19T08:42:57.454Z,10204.00
2018-05-19T08:43:57.459Z,10008.00
2018-05-19T08:44:57.464Z,10780.00
2018-05-19T08:45:57.473Z,10908.00
2018-05-19T08:46:57.470Z,12728.00
2018-05-19T08:47:57.474Z,11824.00
2018-05-19T08:48:57.486Z,11720.00
2018-05-19T08:49:57.494Z,12144.00
2018-05-19T08:50:57.494Z,12620.00
2018-05-19T08:51:57.496Z,13060.00
2018-05-19T08:52:57.499Z,13260.00
2018-05-19T08:53:57.506Z,13360.00
2018-05-19T08:54:57.512Z,13304.00
2018-05-19T08:55:57.517Z,13780.00
2018-05-19T08:56:57.521Z,14436.00
2018-05-19T08:57:57.530Z,14476.00
2018-05-19T08:58:57.524Z,14180.00
2018-05-19T08:59:57.529Z,13732.00
2018-05-19T09:00:57.537Z,13288.00
2018-05-19T09:01:57.538Z,12796.00
2018-05-19T09:02:57.546Z,11884.00
2018-05-19T09:03:57.551Z,10936.00
2018-05-19T09:04:57.550Z,10312.00
2018-05-19T09:05:57.553Z,10240.00
2018-05-19T09:06:57.561Z,10364.00
2018-05-19T09:07:57.566Z,10688.00
2018-05-19T09:08:57.570Z,10728.00
2018-05-19T09:09:57.574Z,10928.00
2018-05-19T09:10:57.571Z,11076.00
2018-05-19T09:11:57.575Z,10916.00
2018-05-19T09:12:57.578Z,10540.00
2018-05-19T09:13:57.587Z,10320.00
2018-05-19T09:14:57.591Z,10252.00
2018-05-19T09:15:57.593Z,10476.00
2018-05-19T09:16:57.596Z,10732.00
2018-05-19T09:17:57.599Z,11060.00
2018-05-19T09:18:57.597Z,11468.00
2018-05-19T09:19:57.600Z,11832.00
2018-05-19T09:20:57.610Z,12240.00
2018-05-19T09:21:57.611Z,13008.00
2018-05-19T09:22:57.608Z,14068.00
2018-05-19T09:23:57.611Z,15108.00
2018-05-19T09:24:57.613Z,16160.00
2018-05-19T09:25:57.616Z,17120.00
2018-05-19T09:26:57.623Z,18624.00
2018-05-19T09:27:57.629Z,21216.00
2018-05-19T09:28:57.629Z,24032.00
2018-05-19T09:29:57.632Z,47232.00
2018-05-19T09:30:57.628Z,25088.00
2018-05-19T09:31:57.636Z,21312.00
2018-05-19T09:32:57.634Z,19616.00
2018-05-19T09:33:57.638Z,19712.00
2018-05-19T09:34:57.645Z,24992.00
2018-05-19T09:35:57.656Z,21440.00
2018-05-19T09:36:57.647Z,19648.00
2018-05-19T09:37:57.651Z,18400.00
2018-05-19T09:38:57.660Z,17024.00
2018-05-19T09:39:57.666Z,16576.00
2018-05-19T09:40:57.666Z,17280.00
2018-05-19T09:41:57.670Z,32608.00
2018-05-19T09:42:57.669Z,15524.00
2018-05-19T09:43:57.674Z,15936.00
2018-05-19T09:44:57.684Z,18944.00
2018-05-19T09:45:57.684Z,18560.00
2018-05-19T09:46:57.691Z,18144.00
2018-05-19T09:47:57.696Z,19264.00
2018-05-19T09:48:57.701Z,20352.00
2018-05-19T09:49:57.714Z,19232.00
2018-05-19T09:50:57.705Z,19616.00
2018-05-19T09:51:57.711Z,20992.00
2018-05-19T09:52:57.760Z,31872.00
2018-05-19T09:53:57.725Z,27936.00
2018-05-19T09:54:57.724Z,27168.00
2018-05-19T09:55:57.729Z,23008.00
2018-05-19T09:56:57.733Z,26368.00
2018-05-19T09:57:57.739Z,48352.00
2018-05-19T09:58:57.747Z,65056.00
2018-05-19T09:59:57.752Z,44160.00
2018-05-19T10:00:57.758Z,70880.00
2018-05-19T10:01:57.763Z,28128.00
2018-05-19T10:02:57.763Z,61216.00
2018-05-19T10:03:57.769Z,64672.00
2018-05-19T10:04:57.806Z,33728.00
2018-05-19T10:05:57.782Z,50560.00
2018-05-19T10:06:57.792Z,33216.00
2018-05-19T10:07:57.799Z,26912.00
2018-05-19T10:08:57.801Z,26496.00
2018-05-19T10:09:57.808Z,28384.00
2018-05-19T10:10:57.820Z,51648.00
2018-05-19T10:11:57.827Z,65984.00
2018-05-19T10:12:57.833Z,53504.00
2018-05-19T10:13:57.841Z,39808.00
2018-05-19T10:14:57.845Z,50496.00
2018-05-19T10:15:57.853Z,34880.00
2018-05-19T10:16:57.860Z,28992.00
2018-05-19T10:17:57.869Z,32352.00
2018-05-19T10:18:57.882Z,29120.00
2018-05-19T10:19:57.890Z,27584.00
2018-05-19T10:20:57.902Z,24192.00
2018-05-19T10:21:57.909Z,22368.00
2018-05-19T10:22:57.960Z,22144.00
2018-05-19T10:23:57.923Z,21120.00
2018-05-19T10:24:57.938Z,19360.00
2018-05-19T10:25:57.997Z,18304.00
2018-05-19T10:26:57.949Z,18144.00
2018-05-19T10:27:57.958Z,17600.00
2018-05-19T10:28:57.967Z,17312.00
2018-05-19T10:29:57.975Z,16672.00
2018-05-19T10:30:57.986Z,16512.00
2018-05-19T10:31:57.995Z,16768.00
2018-05-19T10:32:58.003Z,17632.00
2018-05-19T10:33:58.011Z,18112.00
2018-05-19T10:34:58.016Z,19296.00
2018-05-19T10:35:58.021Z,20160.00
2018-05-19T10:36:58.029Z,23232.00
2018-05-19T10:37:58.036Z,32864.00
2018-05-19T10:38:58.047Z,26816.00
2018-05-19T10:39:58.059Z,39968.00
2018-05-19T10:40:58.058Z,31584.00
2018-05-19T10:41:58.077Z,49376.00
2018-05-19T10:42:58.075Z,55808.00
2018-05-19T10:43:58.081Z,55168.00
2018-05-19T10:44:58.089Z,54528.00
2018-05-19T10:45:58.100Z,60160.00
2018-05-19T10:46:58.097Z,39840.00
2018-05-19T10:47:58.104Z,32416.00
2018-05-19T10:48:58.112Z,52320.00
2018-05-19T10:49:58.119Z,64352.00
2018-05-19T10:50:58.131Z,54208.00
2018-05-19T10:51:58.143Z,21504.00
2018-05-19T10:52:58.148Z,64608.00
2018-05-19T10:53:58.156Z,59936.00
2018-05-19T10:54:58.159Z,67776.00
2018-05-19T10:55:58.170Z,70784.00
2018-05-19T10:56:58.181Z,74208.00
2018-05-19T10:57:58.191Z,77184.00
2018-05-19T10:58:58.196Z,76960.00
2018-05-19T10:59:58.204Z,72096.00
2018-05-19T11:00:58.215Z,74016.00
2018-05-19T11:01:58.224Z,78752.00
2018-05-19T11:02:58.238Z,76960.00
2018-05-19T11:03:58.250Z,72224.00
2018-05-19T11:04:58.261Z,76480.00
2018-05-19T11:05:58.271Z,80192.00
2018-05-19T11:06:58.277Z,81216.00
2018-05-19T11:07:58.358Z,80928.00
2018-05-19T11:08:58.300Z,78176.00
2018-05-19T11:09:58.332Z,72480.00
2018-05-19T11:10:58.330Z,76480.00
2018-05-19T11:11:58.341Z,85184.00
2018-05-19T11:12:58.350Z,48320.00
2018-05-19T11:13:58.363Z,57664.00
2018-05-19T11:14:58.456Z,23936.00
2018-05-19T11:15:58.393Z,19808.00
2018-05-19T11:16:58.407Z,44672.00
2018-05-19T11:17:58.421Z,26976.00
2018-05-19T11:18:58.428Z,23936.00
2018-05-19T11:19:58.440Z,22816.00
2018-05-19T11:20:58.453Z,22304.00
2018-05-19T11:21:58.478Z,20832.00
2018-05-19T11:22:58.481Z,21696.00
2018-05-19T11:23:58.493Z,22144.00
2018-05-19T11:24:58.505Z,21504.00
2018-05-19T11:25:58.516Z,22048.00
2018-05-19T11:26:58.522Z,22272.00
2018-05-19T11:27:58.533Z,22432.00
2018-05-19T11:28:58.550Z,21056.00
2018-05-19T11:29:58.558Z,20544.00
2018-05-19T11:30:58.564Z,18624.00
2018-05-19T11:31:58.574Z,17696.00
2018-05-19T11:32:58.583Z,17696.00
2018-05-19T11:33:58.594Z,17440.00
2018-05-19T11:34:58.607Z,16028.00
2018-05-19T11:35:58.615Z,15116.00
2018-05-19T11:36:58.624Z,14876.00
2018-05-19T11:37:58.632Z,14724.00
2018-05-19T11:38:58.636Z,15284.00
2018-05-19T11:39:58.644Z,16064.00
2018-05-19T11:40:58.652Z,14816.00
2018-05-19T11:41:58.659Z,13792.00
2018-05-19T11:42:58.672Z,12944.00
2018-05-19T11:43:58.680Z,12196.00
2018-05-19T11:44:58.685Z,12048.00
2018-05-19T11:45:58.688Z,12412.00
2018-05-19T11:46:58.698Z,12580.00
2018-05-19T11:47:58.706Z,12844.00
2018-05-19T11:48:58.717Z,13552.00
2018-05-19T11:49:58.717Z,13580.00
2018-05-19T11:50:58.728Z,14116.00
2018-05-19T11:51:58.725Z,14232.00
2018-05-19T11:52:58.733Z,14480.00
2018-05-19T11:53:58.740Z,14896.00
2018-05-19T11:54:58.747Z,15216.00
2018-05-19T11:55:58.751Z,15096.00
2018-05-19T11:56:58.839Z,14920.00
2018-05-19T11:57:58.763Z,15044.00
2018-05-19T11:58:58.763Z,15212.00
2018-05-19T11:59:58.768Z,15364.00
2018-05-19T12:00:58.777Z,15408.00
2018-05-19T12:01:58.786Z,15720.00
2018-05-19T12:02:58.782Z,15664.00
2018-05-19T12:03:58.786Z,14756.00
2018-05-19T12:04:58.792Z,13476.00
2018-05-19T12:05:58.796Z,12604.00
2018-05-19T12:06:58.804Z,12068.00
2018-05-19T12:07:58.869Z,12236.00
2018-05-19T12:08:58.813Z,12452.00
2018-05-19T12:09:58.818Z,11764.00
2018-05-19T12:10:58.817Z,10584.00
2018-05-19T12:11:58.959Z,9944.00
2018-05-19T12:12:58.826Z,10056.00
2018-05-19T12:13:58.830Z,9872.00
2018-05-19T12:14:58.839Z,9920.00